Terminal Aerodrome Forecast
Issued by NWS St Louis, MO

Home | Current Version | Previous Version | Text Only | Print | Product List | Glossary On
Versions: 1 2 3 4 5 6 7 8 9 10 11 12 13 14 15 16 17 18 19 20
000
FTUS43 KLSX 290748 CCA
TAFCOU
TAF COR
KCOU 290748Z 2908/3006 21004KT P6SM SKC
     FM290900 32009G16KT P6SM VCTS BKN040CB
     FM291300 36010KT P6SM SCT040 BKN250
     FM291900 36010KT P6SM VCTS SCT040CB BKN250
     FM300000 36006KT P6SM SCT250=

USA.gov is the U.S. government's official web portal to all federal, state and local government web resources and services.